メインページ
METAR-TAF:

METAR-TAF

空港 :

エセンボーア国際空港

アンカラ-エセンボーア, トルコ

緯度: 40-07N, 経度: 032-59E, 海抜: 953m

現時点の気象観測

当レポートは31分前の01:50(UTC)に作成
南/南東の風 3kt
気温 10°C
湿度 76%
気圧 1021 hPa
視程10km以上
高度4000ftの雲はほとんどない

METAR: LTAC 160150Z 15003KT 9999 FEW040 10/06 Q1021 NOSIG

時間: 05:21 (02:21 UTC)

予報

当レポートは3時間41分前の22:40(UTC)に作成
予報は16日の 00時(UTC)から 16日の 24時(UTC)まで有効
変向風 2kt
視程10km以上
高度4000ftの雲は散在している
確率 30% :
16日の 14時(UTC)から 16日の 18時(UTC)まで一時的に
北/北東の風 15kt
高度3000ftの雲はほとんどない, 積乱雲.
高度3500ftの千切れ雲あり
激しい雷雨, 小雨

TAF: LTAC 152240Z 1600/1624 VRB02KT 9999 SCT040 PROB30 TEMPO 1614/1618 03015KT -TSRA FEW030CB BKN035

4,000以上の空港の気象観測と天気予報(METAR報とTAF報)

利用可能な観測所は地図上に黄色い丸と赤い丸で示す。

丸の上にカーソルを重ねると観測所名を参照できる。

次にクリックすると気象観測と天気予報を参照できる。

マップの切り替え:黒色「×」印の緑ボタンをクリックして拡大、「-」印の緑ボタンをクリックして縮小、緑色の三角印をクリックして隣りの地図に切り替え


METAR-TAF: